createdAt,value
2018-12-09T00:01:00.782Z,1.80
2018-12-09T00:03:29.905Z,1.70
2018-12-09T00:06:00.055Z,1.70
2018-12-09T00:08:29.205Z,1.40
2018-12-09T00:10:57.975Z,1.60
2018-12-09T00:13:26.848Z,1.83
2018-12-09T00:15:55.704Z,1.50
2018-12-09T00:18:24.785Z,1.47
2018-12-09T00:20:53.489Z,1.40
2018-12-09T00:23:22.896Z,1.30
2018-12-09T00:25:51.971Z,1.37
2018-12-09T00:28:21.397Z,1.17
2018-12-09T00:30:50.428Z,1.63
2018-12-09T00:33:19.773Z,1.20
2018-12-09T00:35:48.567Z,1.30
2018-12-09T00:38:17.586Z,1.33
2018-12-09T00:40:46.987Z,1.20
2018-12-09T00:43:15.904Z,1.17
2018-12-09T00:45:45.270Z,1.00
2018-12-09T00:48:14.180Z,1.20
2018-12-09T00:50:44.052Z,1.17
2018-12-09T00:53:15.433Z,1.00
2018-12-09T00:55:44.565Z,0.90
2018-12-09T00:58:13.916Z,0.90
2018-12-09T01:00:42.808Z,0.90
2018-12-09T01:03:11.900Z,1.07
2018-12-09T01:05:40.591Z,0.88
2018-12-09T01:08:09.549Z,0.87
2018-12-09T01:10:39.088Z,0.97
2018-12-09T01:13:07.995Z,0.93
2018-12-09T01:15:37.508Z,0.90
2018-12-09T01:18:06.343Z,1.10
2018-12-09T01:20:35.764Z,1.30
2018-12-09T01:23:04.796Z,1.23
2018-12-09T01:25:33.691Z,0.97
2018-12-09T01:28:02.743Z,1.00
2018-12-09T01:30:35.448Z,1.30
2018-12-09T01:33:05.165Z,1.10
2018-12-09T01:35:33.675Z,1.10
2018-12-09T01:38:02.673Z,1.33
2018-12-09T01:40:35.780Z,1.03
2018-12-09T01:43:04.707Z,1.00
2018-12-09T01:45:33.772Z,0.90
2018-12-09T01:48:02.576Z,1.10
2018-12-09T01:50:31.683Z,1.07
2018-12-09T01:55:10.272Z,0.90
2018-12-09T01:57:39.112Z,0.80
2018-12-09T02:00:07.633Z,1.00
2018-12-09T02:02:37.120Z,0.70
2018-12-09T02:05:06.188Z,0.90
2018-12-09T02:07:35.561Z,0.70
2018-12-09T02:10:05.131Z,0.93
2018-12-09T02:12:34.316Z,0.80
2018-12-09T02:15:03.356Z,0.90
2018-12-09T02:17:32.412Z,0.80
2018-12-09T02:20:01.592Z,0.70
2018-12-09T02:22:30.536Z,0.82
2018-12-09T02:24:59.246Z,1.17
2018-12-09T02:27:28.357Z,0.80
2018-12-09T02:29:57.463Z,1.13
2018-12-09T02:32:27.729Z,0.93
2018-12-09T02:34:57.257Z,0.90
2018-12-09T02:37:27.097Z,1.10
2018-12-09T02:39:56.180Z,0.90
2018-12-09T02:42:24.980Z,1.00
2018-12-09T02:44:53.888Z,1.20
2018-12-09T02:47:22.964Z,1.00
2018-12-09T02:49:52.247Z,1.20
2018-12-09T02:52:21.276Z,1.20
2018-12-09T02:54:49.884Z,0.90
2018-12-09T02:57:19.316Z,0.90
2018-12-09T02:59:50.071Z,1.30
2018-12-09T03:02:19.293Z,0.90
2018-12-09T03:04:48.096Z,1.00
2018-12-09T03:07:17.647Z,0.90
2018-12-09T03:09:46.743Z,1.17
2018-12-09T03:12:15.992Z,0.90
2018-12-09T03:14:46.259Z,0.90
2018-12-09T03:17:15.372Z,1.63
2018-12-09T03:19:44.468Z,0.80
2018-12-09T03:22:14.933Z,0.93
2018-12-09T03:24:44.088Z,0.90
2018-12-09T03:27:12.510Z,0.97
2018-12-09T03:29:41.572Z,1.00
2018-12-09T03:32:10.977Z,0.80
2018-12-09T03:34:41.039Z,1.10
2018-12-09T03:37:10.066Z,0.83
2018-12-09T03:39:39.114Z,0.73
2018-12-09T03:42:08.120Z,0.90
2018-12-09T03:44:37.318Z,1.00
2018-12-09T03:47:06.472Z,0.90
2018-12-09T03:49:35.600Z,1.53
2018-12-09T03:52:04.925Z,0.90
2018-12-09T03:54:33.917Z,1.40
2018-12-09T03:57:03.387Z,1.00
2018-12-09T03:59:33.263Z,1.10
2018-12-09T04:02:02.828Z,1.57
2018-12-09T04:04:31.341Z,1.40
2018-12-09T04:07:01.372Z,1.30
2018-12-09T04:09:30.325Z,1.63
2018-12-09T04:11:59.989Z,1.80
2018-12-09T04:14:29.185Z,1.90
2018-12-09T04:16:58.672Z,1.70
2018-12-09T04:19:27.937Z,1.23
2018-12-09T04:21:56.824Z,1.60
2018-12-09T04:24:26.249Z,1.60
2018-12-09T04:26:54.939Z,2.17
2018-12-09T04:29:23.808Z,1.67
2018-12-09T04:31:52.744Z,1.87
2018-12-09T04:34:21.536Z,1.67
2018-12-09T04:36:50.401Z,1.53
2018-12-09T04:39:23.368Z,2.10
2018-12-09T04:41:53.319Z,1.63
2018-12-09T04:44:22.758Z,2.07
2018-12-09T04:46:52.108Z,1.77
2018-12-09T04:49:22.075Z,1.73
2018-12-09T04:51:54.720Z,1.90
2018-12-09T04:54:24.376Z,1.70
2018-12-09T04:56:53.905Z,1.33
2018-12-09T04:59:24.104Z,1.33
2018-12-09T05:01:53.560Z,1.47
2018-12-09T05:04:23.119Z,1.47
2018-12-09T05:06:51.976Z,1.80
2018-12-09T05:09:20.765Z,1.47
2018-12-09T05:11:49.776Z,1.83
2018-12-09T05:14:18.446Z,1.63
2018-12-09T05:16:47.983Z,1.40
2018-12-09T05:19:17.132Z,1.57
2018-12-09T05:21:46.580Z,1.80
2018-12-09T05:24:15.707Z,1.80
2018-12-09T05:26:44.464Z,1.90
2018-12-09T05:29:13.077Z,1.57
2018-12-09T05:31:42.311Z,2.03
2018-12-09T05:34:12.375Z,1.77
2018-12-09T05:36:41.757Z,2.00
2018-12-09T05:39:10.476Z,1.97
2018-12-09T05:41:39.541Z,1.90
2018-12-09T05:44:08.689Z,1.87
2018-12-09T05:46:37.922Z,1.52
2018-12-09T05:49:06.808Z,1.73
2018-12-09T05:51:35.619Z,1.90
2018-12-09T05:54:05.080Z,1.57
2018-12-09T05:56:33.896Z,1.70
2018-12-09T05:59:03.432Z,1.50
2018-12-09T06:01:32.956Z,1.60
2018-12-09T06:04:02.135Z,1.50
2018-12-09T06:06:31.744Z,1.63
2018-12-09T06:09:00.792Z,1.83
2018-12-09T06:11:29.692Z,1.77
2018-12-09T06:13:59.185Z,1.80
2018-12-09T06:16:28.356Z,1.80
2018-12-09T06:18:57.579Z,2.10
2018-12-09T06:21:26.612Z,1.57
2018-12-09T06:23:55.911Z,1.53
2018-12-09T06:26:25.367Z,3.10
2018-12-09T06:28:54.763Z,1.87
2018-12-09T06:31:25.095Z,1.40
2018-12-09T06:33:54.525Z,1.60
2018-12-09T06:36:24.571Z,1.47
2018-12-09T06:38:53.687Z,1.77
2018-12-09T06:41:22.599Z,1.57
2018-12-09T06:43:52.020Z,1.47
2018-12-09T06:46:21.349Z,1.43
2018-12-09T06:48:50.389Z,1.50
2018-12-09T06:51:19.522Z,1.03
2018-12-09T06:53:49.255Z,1.07
2018-12-09T06:56:18.375Z,1.30
2018-12-09T06:58:47.800Z,2.50
2018-12-09T07:01:18.131Z,1.37
2018-12-09T07:03:47.707Z,1.40
2018-12-09T07:06:16.512Z,1.37
2018-12-09T07:08:47.002Z,1.40
2018-12-09T07:11:16.159Z,1.33
2018-12-09T07:13:47.895Z,1.20
2018-12-09T07:16:17.631Z,1.37
2018-12-09T07:18:47.047Z,1.17
2018-12-09T07:21:15.684Z,1.37
2018-12-09T07:23:46.611Z,1.00
2018-12-09T07:26:15.380Z,1.23
2018-12-09T07:28:45.144Z,1.10
2018-12-09T07:31:15.371Z,1.00
2018-12-09T07:33:44.208Z,1.73
2018-12-09T07:36:13.248Z,0.90
2018-12-09T07:38:42.259Z,1.20
2018-12-09T07:41:11.360Z,1.03
2018-12-09T07:43:39.987Z,1.00
2018-12-09T07:46:09.039Z,1.20
2018-12-09T07:48:38.092Z,1.10
2018-12-09T07:51:07.565Z,1.20
2018-12-09T07:53:36.796Z,1.13
2018-12-09T07:56:06.929Z,1.47
2018-12-09T07:58:36.130Z,1.07
2018-12-09T08:01:05.212Z,1.30
2018-12-09T08:03:36.012Z,1.03
2018-12-09T08:06:04.516Z,0.80
2018-12-09T08:08:35.277Z,0.90
2018-12-09T08:11:04.095Z,0.90
2018-12-09T08:13:33.095Z,0.93
2018-12-09T08:16:02.203Z,1.10
2018-12-09T08:18:31.523Z,1.20
2018-12-09T08:21:00.637Z,1.37
2018-12-09T08:23:29.135Z,1.00
2018-12-09T08:25:58.363Z,1.33
2018-12-09T08:28:29.002Z,1.00
2018-12-09T08:30:57.891Z,1.17
2018-12-09T08:33:26.401Z,1.13
2018-12-09T08:35:55.302Z,1.10
2018-12-09T08:38:24.820Z,1.00
2018-12-09T08:40:55.271Z,0.80
2018-12-09T08:43:25.277Z,0.93
2018-12-09T08:45:54.096Z,0.97
2018-12-09T08:48:23.084Z,0.90
2018-12-09T08:50:51.592Z,0.67
2018-12-09T08:53:21.684Z,1.10
2018-12-09T08:55:50.220Z,1.00
2018-12-09T08:58:18.844Z,0.90
2018-12-09T09:00:47.656Z,0.97
2018-12-09T09:03:16.487Z,1.00
2018-12-09T09:05:45.612Z,1.00
2018-12-09T09:08:14.651Z,0.80
2018-12-09T09:10:44.099Z,0.60
2018-12-09T09:13:13.194Z,0.80
2018-12-09T09:15:45.077Z,0.70
2018-12-09T09:18:14.482Z,0.73
2018-12-09T09:20:43.661Z,0.70
2018-12-09T09:23:13.213Z,0.60
2018-12-09T09:25:43.495Z,0.50
2018-12-09T09:28:12.667Z,0.80
2018-12-09T09:30:42.121Z,0.80
2018-12-09T09:33:11.399Z,0.70
2018-12-09T09:35:40.511Z,0.70
2018-12-09T09:38:09.635Z,0.70
2018-12-09T09:40:37.896Z,0.70
2018-12-09T09:43:06.996Z,0.53
2018-12-09T09:45:36.747Z,0.70
2018-12-09T09:48:05.802Z,0.70
2018-12-09T09:50:35.215Z,0.60
2018-12-09T09:53:03.712Z,0.67
2018-12-09T09:55:32.829Z,0.60
2018-12-09T09:58:01.515Z,0.50
2018-12-09T10:00:30.346Z,0.50
2018-12-09T10:02:59.440Z,0.60
2018-12-09T10:05:28.876Z,0.40
2018-12-09T10:07:58.544Z,0.60
2018-12-09T10:10:27.127Z,1.10
2018-12-09T10:12:56.387Z,1.40
2018-12-09T10:15:25.155Z,0.70
2018-12-09T10:17:54.487Z,0.60
2018-12-09T10:20:24.178Z,0.70
2018-12-09T10:22:52.967Z,0.60
2018-12-09T10:25:23.096Z,0.67
2018-12-09T10:27:51.877Z,0.43
2018-12-09T10:30:21.660Z,0.40
2018-12-09T10:32:50.964Z,0.50
2018-12-09T10:35:20.746Z,0.40
2018-12-09T10:37:49.667Z,0.50
2018-12-09T10:40:18.663Z,0.50
2018-12-09T10:42:48.412Z,0.90
2018-12-09T10:45:17.513Z,0.60
2018-12-09T10:47:46.019Z,0.50
2018-12-09T10:50:14.772Z,0.50
2018-12-09T10:52:43.028Z,0.50
2018-12-09T10:56:15.168Z,0.50
2018-12-09T10:58:44.243Z,0.50
2018-12-09T11:01:18.183Z,0.60
2018-12-09T11:03:47.106Z,0.60
2018-12-09T11:06:16.147Z,0.70
2018-12-09T11:08:45.236Z,0.60
2018-12-09T11:11:13.504Z,0.60
2018-12-09T11:13:43.008Z,0.70
2018-12-09T11:16:12.452Z,0.60
2018-12-09T11:18:42.728Z,0.50
2018-12-09T11:21:11.575Z,0.50
2018-12-09T11:23:40.711Z,0.60
2018-12-09T11:26:09.964Z,0.57
2018-12-09T11:28:39.341Z,0.70
2018-12-09T11:31:08.172Z,0.60
2018-12-09T11:33:37.458Z,0.57
2018-12-09T11:36:06.340Z,0.67
2018-12-09T11:38:35.527Z,0.60
2018-12-09T11:41:04.064Z,0.80
2018-12-09T11:43:33.939Z,0.60
2018-12-09T11:46:04.092Z,0.60
2018-12-09T11:48:33.659Z,0.60
2018-12-09T11:51:02.944Z,0.70
2018-12-09T11:53:32.065Z,0.80
2018-12-09T11:56:01.730Z,0.60
2018-12-09T11:58:32.068Z,0.83
2018-12-09T12:01:00.884Z,0.70
2018-12-09T12:03:29.827Z,0.80
2018-12-09T12:05:59.705Z,0.60
2018-12-09T12:08:28.739Z,0.60
2018-12-09T12:10:57.911Z,0.70
2018-12-09T12:13:31.044Z,0.80
2018-12-09T12:16:00.240Z,0.90
2018-12-09T12:18:30.032Z,0.80
2018-12-09T12:20:59.655Z,0.80
2018-12-09T12:23:29.115Z,0.90
2018-12-09T12:25:58.203Z,0.90
2018-12-09T12:28:27.332Z,0.90
2018-12-09T12:30:57.945Z,0.80
2018-12-09T12:33:26.878Z,0.80
2018-12-09T12:35:56.363Z,0.90
2018-12-09T12:38:25.638Z,0.90
2018-12-09T12:40:54.126Z,1.10
2018-12-09T12:43:24.141Z,1.07
2018-12-09T12:45:53.288Z,1.00
2018-12-09T12:48:22.408Z,1.50
2018-12-09T12:50:50.884Z,1.90
2018-12-09T12:53:20.049Z,1.87
2018-12-09T12:55:49.308Z,1.80
2018-12-09T12:58:18.332Z,1.47
2018-12-09T13:00:47.711Z,2.00
2018-12-09T13:03:16.837Z,2.53
2018-12-09T13:05:46.212Z,4.20
2018-12-09T13:08:15.392Z,2.17
2018-12-09T13:10:44.196Z,1.87
2018-12-09T13:13:14.204Z,1.45
2018-12-09T13:15:43.612Z,1.60
2018-12-09T13:18:12.963Z,1.27
2018-12-09T13:20:42.442Z,1.20
2018-12-09T13:23:11.234Z,1.33
2018-12-09T13:25:40.067Z,1.27
2018-12-09T13:28:09.187Z,1.20
2018-12-09T13:30:38.466Z,1.70
2018-12-09T13:33:07.262Z,1.10
2018-12-09T13:35:36.384Z,1.00
2018-12-09T13:38:05.158Z,1.77
2018-12-09T13:40:33.472Z,1.30
2018-12-09T13:43:02.296Z,1.50
2018-12-09T13:45:31.658Z,1.20
2018-12-09T13:48:02.035Z,1.30
2018-12-09T13:50:30.713Z,1.10
2018-12-09T13:52:59.453Z,1.10
2018-12-09T13:55:28.199Z,1.20
2018-12-09T13:57:56.579Z,1.50
2018-12-09T14:00:26.016Z,1.07
2018-12-09T14:02:54.856Z,1.20
2018-12-09T14:05:23.933Z,1.30
2018-12-09T14:07:53.100Z,1.40
2018-12-09T14:10:22.796Z,1.30
2018-12-09T14:12:51.797Z,1.80
2018-12-09T14:15:20.280Z,1.20
2018-12-09T14:17:49.344Z,1.60
2018-12-09T14:20:18.008Z,1.53
2018-12-09T14:22:47.140Z,2.10
2018-12-09T14:25:15.912Z,2.00
2018-12-09T14:27:44.664Z,1.53
2018-12-09T14:30:13.716Z,1.33
2018-12-09T14:32:42.431Z,1.50
2018-12-09T14:35:11.796Z,1.60
2018-12-09T14:37:40.272Z,2.30
2018-12-09T14:40:10.695Z,3.47
2018-12-09T14:42:39.879Z,2.70
2018-12-09T14:45:09.393Z,2.20
2018-12-09T14:47:37.892Z,1.50
2018-12-09T14:50:08.510Z,1.57
2018-12-09T14:52:37.536Z,3.03
2018-12-09T14:55:06.255Z,3.50
2018-12-09T14:57:35.329Z,1.90
2018-12-09T15:00:05.500Z,2.40
2018-12-09T15:02:34.656Z,1.70
2018-12-09T15:05:03.243Z,3.97
2018-12-09T15:07:32.029Z,3.30
2018-12-09T15:10:08.457Z,3.63
2018-12-09T15:12:32.617Z,4.73
2018-12-09T15:15:02.161Z,4.27
2018-12-09T15:17:31.199Z,3.87
2018-12-09T15:20:00.407Z,3.70
2018-12-09T15:22:29.565Z,1.85
2018-12-09T15:24:59.056Z,1.80
2018-12-09T15:27:28.056Z,1.57
2018-12-09T15:29:57.514Z,1.73
2018-12-09T15:32:26.513Z,1.90
2018-12-09T15:34:55.583Z,1.97
2018-12-09T15:37:24.183Z,3.23
2018-12-09T15:39:53.319Z,2.17
2018-12-09T15:42:22.193Z,2.40
2018-12-09T15:44:51.049Z,2.40
2018-12-09T15:47:19.581Z,2.07
2018-12-09T15:49:48.132Z,2.50
2018-12-09T15:52:17.598Z,2.40
2018-12-09T15:54:46.810Z,3.43
2018-12-09T15:57:20.075Z,2.03
2018-12-09T15:59:49.272Z,1.90
2018-12-09T16:02:18.144Z,2.80
2018-12-09T16:04:46.864Z,2.23
2018-12-09T16:07:16.283Z,2.47
2018-12-09T16:09:45.057Z,2.80
2018-12-09T16:12:14.246Z,2.17
2018-12-09T16:14:43.257Z,2.17
2018-12-09T16:17:12.994Z,2.20
2018-12-09T16:19:41.816Z,2.10
2018-12-09T16:22:11.000Z,2.40
2018-12-09T16:24:40.088Z,2.70
2018-12-09T16:27:09.217Z,2.73
2018-12-09T16:29:38.379Z,1.57
2018-12-09T16:32:07.916Z,1.50
2018-12-09T16:34:36.784Z,1.57
2018-12-09T16:37:06.179Z,1.50
2018-12-09T16:39:35.633Z,2.77
2018-12-09T16:42:04.752Z,2.27
2018-12-09T16:44:33.432Z,1.57
2018-12-09T16:47:02.272Z,1.90
2018-12-09T16:49:32.164Z,3.03
2018-12-09T16:52:01.205Z,3.02
2018-12-09T16:54:30.409Z,2.47
2018-12-09T16:56:59.182Z,2.00
2018-12-09T16:59:28.279Z,2.27
2018-12-09T17:01:57.448Z,1.50
2018-12-09T17:04:26.546Z,1.60
2018-12-09T17:06:55.035Z,1.43
2018-12-09T17:09:23.615Z,1.83
2018-12-09T17:11:52.793Z,1.47
2018-12-09T17:14:22.859Z,1.47
2018-12-09T17:16:52.000Z,2.03
2018-12-09T17:19:21.138Z,1.90
2018-12-09T17:21:49.987Z,1.80
2018-12-09T17:24:18.492Z,1.60
2018-12-09T17:26:47.250Z,1.53
2018-12-09T17:29:16.248Z,1.30
2018-12-09T17:31:45.696Z,1.40
2018-12-09T17:34:14.857Z,2.10
2018-12-09T17:36:43.973Z,1.53
2018-12-09T17:39:12.733Z,1.30
2018-12-09T17:41:41.580Z,1.70
2018-12-09T17:44:10.504Z,1.80
2018-12-09T17:46:39.888Z,1.50
2018-12-09T17:49:09.292Z,1.77
2018-12-09T17:51:38.216Z,2.07
2018-12-09T17:54:07.252Z,1.77
2018-12-09T17:56:36.183Z,1.60
2018-12-09T17:59:05.273Z,1.97
2018-12-09T18:01:34.852Z,4.10
2018-12-09T18:04:03.646Z,3.37
2018-12-09T18:06:32.750Z,2.00
2018-12-09T18:09:01.760Z,3.03
2018-12-09T18:11:30.517Z,2.58
2018-12-09T18:13:59.480Z,2.23
2018-12-09T18:16:28.785Z,1.80
2018-12-09T18:18:57.688Z,1.93
2018-12-09T18:21:26.739Z,2.20
2018-12-09T18:23:56.853Z,5.03
2018-12-09T18:26:25.376Z,4.07
2018-12-09T18:28:53.865Z,1.80
2018-12-09T18:31:23.064Z,4.20
2018-12-09T18:33:52.027Z,1.93
2018-12-09T18:36:21.503Z,6.62
2018-12-09T18:38:50.877Z,2.25
2018-12-09T18:41:19.828Z,2.00
2018-12-09T18:43:48.687Z,1.98
2018-12-09T18:46:18.072Z,1.90
2018-12-09T18:48:47.336Z,1.70
2018-12-09T18:51:17.004Z,1.90
2018-12-09T18:53:46.088Z,3.40
2018-12-09T18:56:16.182Z,5.27
2018-12-09T18:58:45.228Z,2.23
2018-12-09T19:01:14.036Z,2.07
2018-12-09T19:03:43.767Z,1.20
2018-12-09T19:06:12.781Z,1.90
2018-12-09T19:08:41.568Z,2.80
2018-12-09T19:11:10.377Z,1.97
2018-12-09T19:13:38.952Z,1.57
2018-12-09T19:16:08.181Z,2.20
2018-12-09T19:18:37.528Z,1.40
2018-12-09T19:21:06.739Z,1.30
2018-12-09T19:23:36.640Z,1.10
2018-12-09T19:26:05.696Z,1.37
2018-12-09T19:28:35.713Z,1.40
2018-12-09T19:31:05.274Z,1.25
2018-12-09T19:33:34.108Z,1.00
2018-12-09T19:36:02.940Z,0.80
2018-12-09T19:38:40.066Z,0.90
2018-12-09T19:41:02.848Z,1.20
2018-12-09T19:43:31.671Z,1.10
2018-12-09T19:46:01.183Z,1.00
2018-12-09T19:48:29.875Z,1.10
2018-12-09T19:50:58.985Z,1.13
2018-12-09T19:53:27.784Z,1.10
2018-12-09T19:55:58.055Z,1.23
2018-12-09T19:58:27.248Z,1.00
2018-12-09T20:00:56.031Z,1.20
2018-12-09T20:03:25.353Z,1.10
2018-12-09T20:05:55.169Z,1.30
2018-12-09T20:08:23.927Z,1.00
2018-12-09T20:10:53.167Z,1.02
2018-12-09T20:13:22.699Z,1.00
2018-12-09T20:15:51.225Z,1.20
2018-12-09T20:18:19.872Z,1.20
2018-12-09T20:20:49.012Z,1.20
2018-12-09T20:23:18.505Z,1.20
2018-12-09T20:25:47.320Z,1.57
2018-12-09T20:28:16.370Z,1.27
2018-12-09T20:30:44.882Z,1.30
2018-12-09T20:33:13.843Z,1.20
2018-12-09T20:35:42.317Z,1.10
2018-12-09T20:38:11.172Z,1.27
2018-12-09T20:40:40.967Z,1.20
2018-12-09T20:43:10.160Z,1.40
2018-12-09T20:45:39.295Z,1.63
2018-12-09T20:48:13.349Z,1.40
2018-12-09T20:50:39.861Z,1.23
2018-12-09T20:53:08.380Z,1.30
2018-12-09T20:55:38.266Z,1.50
2018-12-09T20:58:07.420Z,1.43
2018-12-09T21:00:37.369Z,1.43
2018-12-09T21:03:06.442Z,1.80
2018-12-09T21:05:35.500Z,1.90
2018-12-09T21:08:04.949Z,2.00
2018-12-09T21:10:33.854Z,1.90
2018-12-09T21:13:02.904Z,2.07
2018-12-09T21:15:32.020Z,1.90
2018-12-09T21:18:01.156Z,2.00
2018-12-09T21:20:35.336Z,1.83
2018-12-09T21:23:04.681Z,1.80
2018-12-09T21:25:34.136Z,2.00
2018-12-09T21:28:03.672Z,1.70
2018-12-09T21:30:32.394Z,1.55
2018-12-09T21:33:02.204Z,1.10
2018-12-09T21:35:32.278Z,1.00
2018-12-09T21:38:01.022Z,0.90
2018-12-09T21:40:30.212Z,1.00
2018-12-09T21:42:59.386Z,1.10
2018-12-09T21:45:31.105Z,0.90
2018-12-09T21:48:00.487Z,0.90
2018-12-09T21:50:29.571Z,1.17
2018-12-09T21:52:58.159Z,1.10
2018-12-09T21:55:27.597Z,1.00
2018-12-09T21:57:56.496Z,1.30
2018-12-09T22:00:25.860Z,1.17
2018-12-09T22:02:55.173Z,1.10
2018-12-09T22:05:24.312Z,1.03
2018-12-09T22:07:52.804Z,1.20
2018-12-09T22:10:22.558Z,1.33
2018-12-09T22:12:51.391Z,1.07
2018-12-09T22:15:20.711Z,1.03
2018-12-09T22:17:49.937Z,1.00
2018-12-09T22:20:18.912Z,1.20
2018-12-09T22:22:47.357Z,0.90
2018-12-09T22:25:16.799Z,1.13
2018-12-09T22:27:45.553Z,0.87
2018-12-09T22:30:14.903Z,1.00
2018-12-09T22:32:43.879Z,0.80
2018-12-09T22:35:13.702Z,0.90
2018-12-09T22:37:42.956Z,0.85
2018-12-09T22:40:11.560Z,0.70
2018-12-09T22:42:41.096Z,0.80
2018-12-09T22:45:10.159Z,0.70
2018-12-09T22:47:39.464Z,0.77
2018-12-09T22:50:08.475Z,0.63
2018-12-09T22:52:37.471Z,0.60
2018-12-09T22:55:06.638Z,1.00
2018-12-09T22:57:35.624Z,0.63
2018-12-09T23:00:05.700Z,0.70
2018-12-09T23:02:39.408Z,0.63
2018-12-09T23:05:08.629Z,0.70
2018-12-09T23:07:42.555Z,0.60
2018-12-09T23:10:12.076Z,0.67
2018-12-09T23:12:41.192Z,0.70
2018-12-09T23:15:10.012Z,0.60
2018-12-09T23:17:38.808Z,0.80
2018-12-09T23:20:07.460Z,0.70
2018-12-09T23:22:36.248Z,0.80
2018-12-09T23:25:05.253Z,0.60
2018-12-09T23:27:35.211Z,0.73
2018-12-09T23:30:04.748Z,0.70
2018-12-09T23:32:33.503Z,0.70
2018-12-09T23:35:02.935Z,0.70
2018-12-09T23:37:32.360Z,0.90
2018-12-09T23:40:00.880Z,0.70
2018-12-09T23:42:29.884Z,0.70
2018-12-09T23:44:58.652Z,0.80
2018-12-09T23:47:27.134Z,0.70
2018-12-09T23:49:55.452Z,0.70
2018-12-09T23:52:24.615Z,0.70
2018-12-09T23:54:53.841Z,0.73
2018-12-09T23:57:22.895Z,0.80
2018-12-09T23:59:51.794Z,0.70
